Petersburg, VA

10:54 PM EST on January 23, 2017 (GMT -0500)
Virginia State University | | Change Station
Active Advisory: Small Craft Advisory Active Notice: Public Information Statement

Elev 98 ft 37.24 °N, 77.42 °W | Updated 2 minutes ago

Mostly Cloudy
Mostly Cloudy
41.0 °F
Feels Like 41 °F
N
1.0
Wind Variable Wind from NNW

Today
High -- | Low -- °F
--% Chance of Precip.
Yesterday
High -- | Low -- °F
Precip. -- in
Pressure 29.44 in
Visibility 5.0 miles
Clouds Mostly Cloudy 800 ft
Overcast 1500 ft
Windchill 41 °F
Dew Point 40 °F
Humidity 96%
Rainfall 0.99 in
Snow Depth Not available.
7:19 AM 5:24 PM
Waning Crescent, 14% visible
METAR KFCI 240255Z AUTO 34013G18KT 5SM BKN008 OVC015 05/M04 A2944 RMK AO1 52020
Pressure 29.44 in
Visibility 5.0 miles
Clouds Mostly Cloudy 800 ft
Overcast 1500 ft
Windchill 41 °F
Dew Point 40 °F
Humidity 96%
Rainfall 0.99 in
Snow Depth Not available.
7:19 AM 5:24 PM
Waning Crescent, 14% visible
METAR KFCI 240255Z AUTO 34013G18KT 5SM BKN008 OVC015 05/M04 A2944 RMK AO1 52020

Get Your Daily Forecast Email!

Thanks for signing up!

Be on the lookout for a verification email in your inbox.

You'll start receiving the daily forecast at 8 AM.

×

10-Day Weather Forecast

Almanac

Astronomy

Jan. 23, 2017 Rise Set
Actual Time
Civil Twilight
Nautical Twilight
Astronomical Twilight
Moon
Length of Visible Light
Length of Day
Tomorrow will be .
, % of the Moon is Illuminated

Today's Extremes

State Highs State Lows

Community

WunderPhotos

Upload Photos

1,962,540 photos uploaded!

WunderBlog® & News

Nearby

Air Quality

  Air Quality AQ Index Pollutant
Not available.

Snow Depth

Station Depth Elevation

Earthquake Activity

City Distance Mag. Time & Date
Minimum magnitude displayed is 2.5.

Coastal Water Temperatures

Place Temperature

Stations

Nearby Weather Stations

Station Location Temp. Windchill Dew Point Humidity Wind Precip. Elev Updated Type
                   

Watches & Warnings

Small Craft Advisory
Issued: 8:16 PM EST Jan. 23, 2017 – National Weather Service

... Small Craft Advisory remains in effect until 1 PM EST
Tuesday...

* winds... northwest 10 to 20 kt with gusts up to 25 kt.

Precautionary/preparedness actions...

A Small Craft Advisory means wind speeds of 20 to 33 knots over
the rivers of eastern Virginia are expected to produce hazardous
boating conditions to small craft. Inexperienced mariners...
especially those operating smaller vessels... should avoid
navigating in these conditions.

Mariners should pay close attention to the marine forecast... and
consider wind and sea conditions in planning.